sensor_id;sensor_type;location;lat;lon;timestamp;pressure;altitude;pressure_sealevel;temperature;humidity
7918;BME280;4004;42.624;23.386;2023-08-06T00:01:16;93104.56;;;21.13;100.00
7918;BME280;4004;42.624;23.386;2023-08-06T00:03:44;93121.53;;;21.07;100.00
7918;BME280;4004;42.624;23.386;2023-08-06T00:06:10;93112.00;;;21.12;100.00
7918;BME280;4004;42.624;23.386;2023-08-06T00:08:37;93098.53;;;21.18;100.00
7918;BME280;4004;42.624;23.386;2023-08-06T00:11:05;93105.81;;;21.21;100.00
7918;BME280;4004;42.624;23.386;2023-08-06T00:13:32;93116.53;;;21.06;100.00
7918;BME280;4004;42.624;23.386;2023-08-06T00:16:08;93099.94;;;21.00;100.00
7918;BME280;4004;42.624;23.386;2023-08-06T00:18:35;93087.91;;;20.66;100.00
7918;BME280;4004;42.624;23.386;2023-08-06T00:21:02;93098.09;;;20.53;100.00
7918;BME280;4004;42.624;23.386;2023-08-06T00:23:28;93093.94;;;20.61;100.00
7918;BME280;4004;42.624;23.386;2023-08-06T00:25:55;93087.50;;;20.55;100.00
7918;BME280;4004;42.624;23.386;2023-08-06T00:28:23;93083.81;;;20.71;100.00
7918;BME280;4004;42.624;23.386;2023-08-06T00:30:52;93086.63;;;20.80;100.00
7918;BME280;4004;42.624;23.386;2023-08-06T00:33:19;93088.00;;;20.63;100.00
7918;BME280;4004;42.624;23.386;2023-08-06T00:35:46;93085.75;;;20.61;100.00
7918;BME280;4004;42.624;23.386;2023-08-06T00:38:13;93080.63;;;20.50;100.00
7918;BME280;4004;42.624;23.386;2023-08-06T00:40:40;93078.22;;;20.53;100.00
7918;BME280;4004;42.624;23.386;2023-08-06T00:43:06;93072.63;;;20.56;100.00
7918;BME280;4004;42.624;23.386;2023-08-06T00:45:36;93075.69;;;20.58;100.00
7918;BME280;4004;42.624;23.386;2023-08-06T00:48:03;93064.22;;;20.63;100.00
7918;BME280;4004;42.624;23.386;2023-08-06T00:50:31;93053.63;;;20.65;100.00
7918;BME280;4004;42.624;23.386;2023-08-06T00:52:58;93055.06;;;20.57;100.00
7918;BME280;4004;42.624;23.386;2023-08-06T00:55:25;93062.16;;;20.55;100.00
7918;BME280;4004;42.624;23.386;2023-08-06T00:57:53;93052.09;;;20.52;100.00
7918;BME280;4004;42.624;23.386;2023-08-06T01:00:22;93051.25;;;20.55;100.00
7918;BME280;4004;42.624;23.386;2023-08-06T01:02:50;93038.25;;;20.59;100.00
7918;BME280;4004;42.624;23.386;2023-08-06T01:05:17;93041.66;;;20.50;100.00
7918;BME280;4004;42.624;23.386;2023-08-06T01:07:58;93041.50;;;20.54;100.00
7918;BME280;4004;42.624;23.386;2023-08-06T01:10:45;93026.16;;;20.47;100.00
7918;BME280;4004;42.624;23.386;2023-08-06T01:13:23;93019.50;;;20.48;100.00
7918;BME280;4004;42.624;23.386;2023-08-06T01:15:54;93023.25;;;20.41;100.00
7918;BME280;4004;42.624;23.386;2023-08-06T01:18:23;93025.97;;;20.41;100.00
7918;BME280;4004;42.624;23.386;2023-08-06T01:20:51;93029.84;;;20.53;100.00
7918;BME280;4004;42.624;23.386;2023-08-06T01:23:19;93014.38;;;20.72;100.00
7918;BME280;4004;42.624;23.386;2023-08-06T01:25:51;93012.00;;;20.83;100.00
7918;BME280;4004;42.624;23.386;2023-08-06T01:28:27;93009.88;;;20.87;100.00
7918;BME280;4004;42.624;23.386;2023-08-06T01:31:01;92993.97;;;20.95;100.00
7918;BME280;4004;42.624;23.386;2023-08-06T01:33:32;93002.34;;;21.01;100.00
7918;BME280;4004;42.624;23.386;2023-08-06T01:36:02;93015.56;;;21.02;100.00
7918;BME280;4004;42.624;23.386;2023-08-06T01:38:30;93009.19;;;21.05;100.00
7918;BME280;4004;42.624;23.386;2023-08-06T01:40:57;93003.28;;;21.07;100.00
7918;BME280;4004;42.624;23.386;2023-08-06T01:43:24;92994.31;;;21.06;100.00
7918;BME280;4004;42.624;23.386;2023-08-06T01:45:50;92999.03;;;21.06;100.00
7918;BME280;4004;42.624;23.386;2023-08-06T01:48:17;93002.97;;;21.05;100.00
7918;BME280;4004;42.624;23.386;2023-08-06T01:50:44;92989.63;;;21.07;100.00
7918;BME280;4004;42.624;23.386;2023-08-06T01:53:12;92985.69;;;21.08;100.00
7918;BME280;4004;42.624;23.386;2023-08-06T01:55:39;93000.84;;;21.09;100.00
7918;BME280;4004;42.624;23.386;2023-08-06T01:58:05;93004.38;;;21.19;100.00
7918;BME280;4004;42.624;23.386;2023-08-06T02:00:32;92996.97;;;21.19;100.00
7918;BME280;4004;42.624;23.386;2023-08-06T02:02:59;93003.19;;;21.20;100.00
7918;BME280;4004;42.624;23.386;2023-08-06T02:05:25;93003.31;;;21.16;100.00
7918;BME280;4004;42.624;23.386;2023-08-06T02:07:52;92989.63;;;21.16;100.00
7918;BME280;4004;42.624;23.386;2023-08-06T02:10:20;92982.81;;;21.21;100.00
7918;BME280;4004;42.624;23.386;2023-08-06T02:12:47;92991.31;;;21.14;100.00
7918;BME280;4004;42.624;23.386;2023-08-06T02:15:14;92986.09;;;20.97;100.00
7918;BME280;4004;42.624;23.386;2023-08-06T02:17:41;92983.97;;;20.92;100.00
7918;BME280;4004;42.624;23.386;2023-08-06T02:20:07;92987.44;;;20.93;100.00
7918;BME280;4004;42.624;23.386;2023-08-06T02:22:34;92990.75;;;20.87;100.00
7918;BME280;4004;42.624;23.386;2023-08-06T02:25:01;92982.78;;;20.71;100.00
7918;BME280;4004;42.624;23.386;2023-08-06T02:27:29;93004.63;;;20.71;100.00
7918;BME280;4004;42.624;23.386;2023-08-06T02:29:56;93018.56;;;20.64;100.00
7918;BME280;4004;42.624;23.386;2023-08-06T02:32:22;93008.75;;;20.54;100.00
7918;BME280;4004;42.624;23.386;2023-08-06T02:34:49;92989.63;;;20.54;100.00
7918;BME280;4004;42.624;23.386;2023-08-06T02:37:16;93000.88;;;20.56;100.00
7918;BME280;4004;42.624;23.386;2023-08-06T02:39:43;93016.88;;;20.44;100.00
7918;BME280;4004;42.624;23.386;2023-08-06T02:42:09;93035.66;;;20.42;100.00
7918;BME280;4004;42.624;23.386;2023-08-06T02:44:37;93038.09;;;20.40;100.00
7918;BME280;4004;42.624;23.386;2023-08-06T02:47:05;93030.66;;;20.41;100.00
7918;BME280;4004;42.624;23.386;2023-08-06T02:49:32;93023.28;;;20.28;100.00
7918;BME280;4004;42.624;23.386;2023-08-06T02:51:58;93026.34;;;20.31;100.00
7918;BME280;4004;42.624;23.386;2023-08-06T02:54:25;93003.22;;;20.44;100.00
7918;BME280;4004;42.624;23.386;2023-08-06T02:56:52;92984.19;;;20.32;100.00
7918;BME280;4004;42.624;23.386;2023-08-06T02:59:19;92998.34;;;20.39;100.00
7918;BME280;4004;42.624;23.386;2023-08-06T03:01:47;93024.69;;;20.33;100.00
7918;BME280;4004;42.624;23.386;2023-08-06T03:04:14;93023.34;;;20.38;100.00
7918;BME280;4004;42.624;23.386;2023-08-06T03:06:40;92991.25;;;20.42;100.00
7918;BME280;4004;42.624;23.386;2023-08-06T03:09:07;92966.72;;;20.51;100.00
7918;BME280;4004;42.624;23.386;2023-08-06T03:11:34;92937.31;;;20.55;100.00
7918;BME280;4004;42.624;23.386;2023-08-06T03:14:00;92969.41;;;20.42;100.00
7918;BME280;4004;42.624;23.386;2023-08-06T03:16:27;93013.34;;;20.35;100.00
7918;BME280;4004;42.624;23.386;2023-08-06T03:18:55;92994.28;;;20.22;100.00
7918;BME280;4004;42.624;23.386;2023-08-06T03:21:22;92971.53;;;19.81;100.00
7918;BME280;4004;42.624;23.386;2023-08-06T03:23:49;92961.47;;;19.43;100.00
7918;BME280;4004;42.624;23.386;2023-08-06T03:26:15;92982.78;;;19.22;100.00
7918;BME280;4004;42.624;23.386;2023-08-06T03:28:42;93013.63;;;19.32;100.00
7918;BME280;4004;42.624;23.386;2023-08-06T03:31:09;93020.50;;;19.37;100.00
7918;BME280;4004;42.624;23.386;2023-08-06T03:33:36;93031.91;;;19.44;100.00
7918;BME280;4004;42.624;23.386;2023-08-06T03:36:04;93015.13;;;19.59;100.00
7918;BME280;4004;42.624;23.386;2023-08-06T03:38:31;93010.28;;;19.63;100.00
7918;BME280;4004;42.624;23.386;2023-08-06T03:40:58;93016.56;;;19.38;100.00
7918;BME280;4004;42.624;23.386;2023-08-06T03:43:24;93027.25;;;19.19;100.00
7918;BME280;4004;42.624;23.386;2023-08-06T03:45:51;93036.63;;;19.31;100.00
7918;BME280;4004;42.624;23.386;2023-08-06T03:48:18;93038.59;;;19.31;100.00
7918;BME280;4004;42.624;23.386;2023-08-06T03:50:45;93035.19;;;19.14;100.00
7918;BME280;4004;42.624;23.386;2023-08-06T03:53:13;93034.53;;;19.22;100.00
7918;BME280;4004;42.624;23.386;2023-08-06T03:55:39;93035.84;;;19.43;100.00
7918;BME280;4004;42.624;23.386;2023-08-06T03:58:06;93051.66;;;19.23;100.00
7918;BME280;4004;42.624;23.386;2023-08-06T04:00:33;93066.78;;;18.98;100.00
7918;BME280;4004;42.624;23.386;2023-08-06T04:03:00;93083.03;;;19.02;100.00
7918;BME280;4004;42.624;23.386;2023-08-06T04:05:26;93092.94;;;18.96;100.00
7918;BME280;4004;42.624;23.386;2023-08-06T04:07:53;93079.09;;;19.03;100.00
7918;BME280;4004;42.624;23.386;2023-08-06T04:10:21;93059.59;;;19.04;100.00
7918;BME280;4004;42.624;23.386;2023-08-06T04:12:48;93042.28;;;19.11;100.00
7918;BME280;4004;42.624;23.386;2023-08-06T04:15:14;93026.59;;;19.15;100.00
7918;BME280;4004;42.624;23.386;2023-08-06T04:17:41;93032.47;;;19.26;100.00
7918;BME280;4004;42.624;23.386;2023-08-06T04:20:08;93031.06;;;19.48;100.00
7918;BME280;4004;42.624;23.386;2023-08-06T04:22:35;93036.78;;;19.62;100.00
7918;BME280;4004;42.624;23.386;2023-08-06T04:25:02;93028.81;;;19.68;100.00
7918;BME280;4004;42.624;23.386;2023-08-06T04:27:31;93024.47;;;19.71;100.00
7918;BME280;4004;42.624;23.386;2023-08-06T04:29:57;93031.00;;;19.73;100.00
7918;BME280;4004;42.624;23.386;2023-08-06T04:32:24;93022.59;;;19.80;100.00
7918;BME280;4004;42.624;23.386;2023-08-06T04:34:51;93021.16;;;19.88;100.00
7918;BME280;4004;42.624;23.386;2023-08-06T04:37:18;93014.06;;;19.91;100.00
7918;BME280;4004;42.624;23.386;2023-08-06T04:39:45;92997.31;;;20.02;100.00
7918;BME280;4004;42.624;23.386;2023-08-06T04:42:11;92984.72;;;20.17;100.00
7918;BME280;4004;42.624;23.386;2023-08-06T04:44:39;92991.50;;;20.35;100.00
7918;BME280;4004;42.624;23.386;2023-08-06T04:47:06;92985.94;;;20.47;100.00
7918;BME280;4004;42.624;23.386;2023-08-06T04:49:33;92979.03;;;20.56;100.00
7918;BME280;4004;42.624;23.386;2023-08-06T04:52:00;92972.25;;;20.60;100.00
7918;BME280;4004;42.624;23.386;2023-08-06T04:54:26;92966.78;;;20.60;100.00
7918;BME280;4004;42.624;23.386;2023-08-06T04:56:53;92956.53;;;20.74;100.00
7918;BME280;4004;42.624;23.386;2023-08-06T04:59:20;92953.91;;;20.92;100.00
7918;BME280;4004;42.624;23.386;2023-08-06T05:01:48;92957.31;;;21.15;100.00
7918;BME280;4004;42.624;23.386;2023-08-06T05:04:15;92960.88;;;21.43;100.00
7918;BME280;4004;42.624;23.386;2023-08-06T05:06:41;92956.22;;;21.52;100.00
7918;BME280;4004;42.624;23.386;2023-08-06T05:09:08;92957.28;;;21.73;100.00
7918;BME280;4004;42.624;23.386;2023-08-06T05:11:35;92952.13;;;22.12;100.00
7918;BME280;4004;42.624;23.386;2023-08-06T05:14:02;92966.69;;;23.65;100.00
7918;BME280;4004;42.624;23.386;2023-08-06T05:16:28;92969.19;;;25.00;100.00
7918;BME280;4004;42.624;23.386;2023-08-06T05:18:56;92976.69;;;25.50;100.00
7918;BME280;4004;42.624;23.386;2023-08-06T05:21:23;92971.03;;;25.38;100.00
7918;BME280;4004;42.624;23.386;2023-08-06T05:23:50;92966.84;;;24.93;100.00
7918;BME280;4004;42.624;23.386;2023-08-06T05:26:16;92960.06;;;24.34;100.00
7918;BME280;4004;42.624;23.386;2023-08-06T05:28:44;92955.59;;;23.83;100.00
7918;BME280;4004;42.624;23.386;2023-08-06T05:31:11;92972.16;;;23.41;100.00
7918;BME280;4004;42.624;23.386;2023-08-06T05:33:38;92967.66;;;22.86;100.00
7918;BME280;4004;42.624;23.386;2023-08-06T05:36:06;92967.81;;;22.30;100.00
7918;BME280;4004;42.624;23.386;2023-08-06T05:38:33;92961.56;;;22.02;100.00
7918;BME280;4004;42.624;23.386;2023-08-06T05:41:00;92957.44;;;21.88;100.00
7918;BME280;4004;42.624;23.386;2023-08-06T05:43:27;92959.25;;;21.64;100.00
7918;BME280;4004;42.624;23.386;2023-08-06T05:45:53;92950.59;;;21.56;100.00
7918;BME280;4004;42.624;23.386;2023-08-06T05:48:20;92951.50;;;21.71;100.00
7918;BME280;4004;42.624;23.386;2023-08-06T05:50:48;92957.91;;;22.14;100.00
7918;BME280;4004;42.624;23.386;2023-08-06T05:53:16;92960.06;;;22.81;100.00
7918;BME280;4004;42.624;23.386;2023-08-06T05:55:43;92956.72;;;22.86;100.00
7918;BME280;4004;42.624;23.386;2023-08-06T05:58:09;92952.16;;;22.73;100.00
7918;BME280;4004;42.624;23.386;2023-08-06T06:00:37;92954.75;;;22.77;100.00
7918;BME280;4004;42.624;23.386;2023-08-06T06:03:04;92969.34;;;23.26;100.00
7918;BME280;4004;42.624;23.386;2023-08-06T06:05:31;92965.25;;;23.78;100.00
7918;BME280;4004;42.624;23.386;2023-08-06T06:07:57;92972.59;;;23.72;100.00
7918;BME280;4004;42.624;23.386;2023-08-06T06:10:26;92969.84;;;23.96;100.00
7918;BME280;4004;42.624;23.386;2023-08-06T06:12:53;92982.56;;;23.61;100.00
7918;BME280;4004;42.624;23.386;2023-08-06T06:15:19;92989.47;;;23.23;100.00
7918;BME280;4004;42.624;23.386;2023-08-06T06:17:46;92999.41;;;22.59;100.00
7918;BME280;4004;42.624;23.386;2023-08-06T06:20:13;93007.94;;;22.24;100.00
7918;BME280;4004;42.624;23.386;2023-08-06T06:22:40;93008.38;;;22.04;100.00
7918;BME280;4004;42.624;23.386;2023-08-06T06:25:07;93013.31;;;21.41;100.00
7918;BME280;4004;42.624;23.386;2023-08-06T06:27:36;93010.97;;;20.90;100.00
7918;BME280;4004;42.624;23.386;2023-08-06T06:30:03;93018.69;;;20.60;100.00
7918;BME280;4004;42.624;23.386;2023-08-06T06:32:30;93027.00;;;20.35;100.00
7918;BME280;4004;42.624;23.386;2023-08-06T06:34:57;93032.34;;;20.47;100.00
7918;BME280;4004;42.624;23.386;2023-08-06T06:37:24;93040.41;;;20.64;100.00
7918;BME280;4004;42.624;23.386;2023-08-06T06:39:51;93044.44;;;20.81;100.00
7918;BME280;4004;42.624;23.386;2023-08-06T06:42:18;93041.94;;;20.96;100.00
7918;BME280;4004;42.624;23.386;2023-08-06T06:44:46;93046.91;;;21.20;100.00
7918;BME280;4004;42.624;23.386;2023-08-06T06:47:13;93047.97;;;21.22;100.00
7918;BME280;4004;42.624;23.386;2023-08-06T06:49:40;93051.75;;;21.16;100.00
7918;BME280;4004;42.624;23.386;2023-08-06T06:52:07;93050.72;;;21.22;100.00
7918;BME280;4004;42.624;23.386;2023-08-06T06:54:33;93067.78;;;21.36;100.00
7918;BME280;4004;42.624;23.386;2023-08-06T06:57:00;93062.34;;;21.45;100.00
7918;BME280;4004;42.624;23.386;2023-08-06T06:59:27;93056.34;;;21.59;100.00
7918;BME280;4004;42.624;23.386;2023-08-06T07:01:55;93051.59;;;21.41;100.00
7918;BME280;4004;42.624;23.386;2023-08-06T07:04:22;93060.88;;;21.53;100.00
7918;BME280;4004;42.624;23.386;2023-08-06T07:06:48;93055.88;;;21.61;100.00
7918;BME280;4004;42.624;23.386;2023-08-06T07:09:17;93063.22;;;21.73;100.00
7918;BME280;4004;42.624;23.386;2023-08-06T07:11:44;93067.34;;;21.87;100.00
7918;BME280;4004;42.624;23.386;2023-08-06T07:14:10;93073.13;;;21.89;100.00
7918;BME280;4004;42.624;23.386;2023-08-06T07:16:37;93066.41;;;21.81;100.00
7918;BME280;4004;42.624;23.386;2023-08-06T07:19:05;93065.69;;;21.99;100.00
7918;BME280;4004;42.624;23.386;2023-08-06T07:21:32;93058.91;;;22.31;100.00
7918;BME280;4004;42.624;23.386;2023-08-06T07:23:59;93058.56;;;22.56;100.00
7918;BME280;4004;42.624;23.386;2023-08-06T07:26:26;93060.59;;;23.26;92.09
7918;BME280;4004;42.624;23.386;2023-08-06T07:28:52;93054.53;;;24.13;85.89
7918;BME280;4004;42.624;23.386;2023-08-06T07:31:19;93058.22;;;25.02;74.98
7918;BME280;4004;42.624;23.386;2023-08-06T07:33:46;93070.06;;;25.53;65.23
7918;BME280;4004;42.624;23.386;2023-08-06T07:36:14;93058.78;;;25.87;62.89
7918;BME280;4004;42.624;23.386;2023-08-06T07:38:41;93074.72;;;26.18;60.47
7918;BME280;4004;42.624;23.386;2023-08-06T07:41:08;93066.47;;;26.38;57.94
7918;BME280;4004;42.624;23.386;2023-08-06T07:43:35;93060.75;;;26.62;58.14
7918;BME280;4004;42.624;23.386;2023-08-06T07:46:02;93064.88;;;26.99;56.29
7918;BME280;4004;42.624;23.386;2023-08-06T07:48:29;93067.59;;;27.19;54.15
7918;BME280;4004;42.624;23.386;2023-08-06T07:50:56;93064.69;;;27.28;53.23
7918;BME280;4004;42.624;23.386;2023-08-06T07:53:25;93064.84;;;27.51;52.33
7918;BME280;4004;42.624;23.386;2023-08-06T07:55:55;93065.09;;;27.85;52.31
7918;BME280;4004;42.624;23.386;2023-08-06T07:58:23;93053.69;;;28.15;50.91
7918;BME280;4004;42.624;23.386;2023-08-06T08:00:51;93059.66;;;27.96;50.40
7918;BME280;4004;42.624;23.386;2023-08-06T08:03:18;93066.81;;;28.20;50.49
7918;BME280;4004;42.624;23.386;2023-08-06T08:05:45;93061.75;;;28.13;49.79
7918;BME280;4004;42.624;23.386;2023-08-06T08:08:12;93039.56;;;27.96;49.55
7918;BME280;4004;42.624;23.386;2023-08-06T08:10:41;93053.31;;;27.84;50.65
7918;BME280;4004;42.624;23.386;2023-08-06T08:13:08;93053.91;;;28.05;50.43
7918;BME280;4004;42.624;23.386;2023-08-06T08:15:35;93056.69;;;28.05;49.31
7918;BME280;4004;42.624;23.386;2023-08-06T08:18:02;93059.34;;;27.88;49.23
7918;BME280;4004;42.624;23.386;2023-08-06T08:20:29;93062.34;;;27.85;49.80
7918;BME280;4004;42.624;23.386;2023-08-06T08:22:58;93058.94;;;27.64;49.39
7918;BME280;4004;42.624;23.386;2023-08-06T08:25:25;93055.91;;;27.67;48.76
7918;BME280;4004;42.624;23.386;2023-08-06T08:27:54;93063.03;;;27.42;48.76
7918;BME280;4004;42.624;23.386;2023-08-06T08:30:21;93061.41;;;27.30;49.40
7918;BME280;4004;42.624;23.386;2023-08-06T08:32:50;93053.66;;;27.66;49.27
7918;BME280;4004;42.624;23.386;2023-08-06T08:35:17;93056.81;;;27.85;48.67
7918;BME280;4004;42.624;23.386;2023-08-06T08:37:43;93066.25;;;28.10;48.45
7918;BME280;4004;42.624;23.386;2023-08-06T08:40:10;93072.38;;;28.31;48.23
7918;BME280;4004;42.624;23.386;2023-08-06T08:42:37;93058.69;;;27.99;47.75
7918;BME280;4004;42.624;23.386;2023-08-06T08:45:07;93055.97;;;27.73;48.35
7918;BME280;4004;42.624;23.386;2023-08-06T08:47:38;93059.13;;;27.60;48.78
7918;BME280;4004;42.624;23.386;2023-08-06T08:50:06;93047.09;;;27.63;48.55
7918;BME280;4004;42.624;23.386;2023-08-06T08:52:35;93052.78;;;27.48;48.11
7918;BME280;4004;42.624;23.386;2023-08-06T08:55:03;93037.66;;;27.12;48.88
7918;BME280;4004;42.624;23.386;2023-08-06T08:57:30;93050.69;;;26.85;50.05
7918;BME280;4004;42.624;23.386;2023-08-06T08:59:57;93040.75;;;26.94;49.68
7918;BME280;4004;42.624;23.386;2023-08-06T09:02:28;93049.84;;;27.00;50.29
7918;BME280;4004;42.624;23.386;2023-08-06T09:04:56;93043.78;;;26.96;50.61
7918;BME280;4004;42.624;23.386;2023-08-06T09:07:26;93040.44;;;26.86;50.27
7918;BME280;4004;42.624;23.386;2023-08-06T09:09:54;93039.78;;;26.97;50.03
7918;BME280;4004;42.624;23.386;2023-08-06T09:12:22;93030.53;;;27.00;50.82
7918;BME280;4004;42.624;23.386;2023-08-06T09:14:49;93019.19;;;26.92;51.06
7918;BME280;4004;42.624;23.386;2023-08-06T09:17:16;93011.06;;;26.83;50.19
7918;BME280;4004;42.624;23.386;2023-08-06T09:19:46;93032.72;;;26.64;50.67
7918;BME280;4004;42.624;23.386;2023-08-06T09:22:15;93013.41;;;26.64;50.39
7918;BME280;4004;42.624;23.386;2023-08-06T09:24:41;93022.38;;;26.59;49.77
7918;BME280;4004;42.624;23.386;2023-08-06T09:27:11;93013.34;;;26.58;49.10
7918;BME280;4004;42.624;23.386;2023-08-06T09:29:40;93023.56;;;26.78;49.53
7918;BME280;4004;42.624;23.386;2023-08-06T09:32:07;93012.25;;;26.76;48.64
7918;BME280;4004;42.624;23.386;2023-08-06T09:34:34;93011.75;;;26.52;48.59
7918;BME280;4004;42.624;23.386;2023-08-06T09:37:03;93014.59;;;26.57;48.94
7918;BME280;4004;42.624;23.386;2023-08-06T09:39:30;93011.97;;;26.69;48.50
7918;BME280;4004;42.624;23.386;2023-08-06T09:41:58;93015.41;;;26.63;48.56
7918;BME280;4004;42.624;23.386;2023-08-06T09:44:26;93009.50;;;26.76;48.04
7918;BME280;4004;42.624;23.386;2023-08-06T09:46:54;93009.84;;;26.84;47.41
7918;BME280;4004;42.624;23.386;2023-08-06T09:49:40;93009.72;;;26.99;47.81
7918;BME280;4004;42.624;23.386;2023-08-06T09:52:11;93013.28;;;27.05;47.01
7918;BME280;4004;42.624;23.386;2023-08-06T09:54:38;93015.56;;;27.06;47.23
7918;BME280;4004;42.624;23.386;2023-08-06T09:57:05;93027.50;;;26.98;46.95
7918;BME280;4004;42.624;23.386;2023-08-06T09:59:32;93023.47;;;26.93;46.97
7918;BME280;4004;42.624;23.386;2023-08-06T10:01:59;93020.06;;;26.78;46.69
7918;BME280;4004;42.624;23.386;2023-08-06T10:04:26;93024.03;;;26.77;47.29
7918;BME280;4004;42.624;23.386;2023-08-06T10:06:56;93025.31;;;26.76;47.94
7918;BME280;4004;42.624;23.386;2023-08-06T10:09:26;93030.72;;;26.91;47.27
7918;BME280;4004;42.624;23.386;2023-08-06T10:11:53;93031.72;;;27.19;46.53
7918;BME280;4004;42.624;23.386;2023-08-06T10:14:24;93028.63;;;27.38;46.34
7918;BME280;4004;42.624;23.386;2023-08-06T10:16:52;93016.59;;;27.41;47.05
7918;BME280;4004;42.624;23.386;2023-08-06T10:19:20;93036.97;;;27.49;46.09
7918;BME280;4004;42.624;23.386;2023-08-06T10:22:08;93029.31;;;27.64;46.25
7918;BME280;4004;42.624;23.386;2023-08-06T10:24:47;93031.22;;;27.84;45.00
7918;BME280;4004;42.624;23.386;2023-08-06T10:27:19;93032.13;;;27.76;44.75
7918;BME280;4004;42.624;23.386;2023-08-06T10:29:46;93044.94;;;27.79;45.12
7918;BME280;4004;42.624;23.386;2023-08-06T10:32:13;93039.75;;;27.49;45.55
7918;BME280;4004;42.624;23.386;2023-08-06T10:34:56;93044.47;;;27.43;45.66
7918;BME280;4004;42.624;23.386;2023-08-06T10:37:23;93050.69;;;27.38;46.34
7918;BME280;4004;42.624;23.386;2023-08-06T10:39:52;93051.78;;;27.46;46.18
7918;BME280;4004;42.624;23.386;2023-08-06T10:42:20;93048.16;;;27.34;46.19
7918;BME280;4004;42.624;23.386;2023-08-06T10:45:12;93051.19;;;27.10;46.17
7918;BME280;4004;42.624;23.386;2023-08-06T10:47:41;93058.06;;;26.94;46.24
7918;BME280;4004;42.624;23.386;2023-08-06T10:50:10;93048.94;;;26.82;46.72
7918;BME280;4004;42.624;23.386;2023-08-06T10:52:38;93058.88;;;26.74;46.93
7918;BME280;4004;42.624;23.386;2023-08-06T10:55:07;93057.69;;;26.81;46.77
7918;BME280;4004;42.624;23.386;2023-08-06T10:57:34;93068.31;;;26.67;47.48
7918;BME280;4004;42.624;23.386;2023-08-06T11:00:01;93076.75;;;26.58;47.26
7918;BME280;4004;42.624;23.386;2023-08-06T11:02:28;93079.16;;;26.71;46.80
7918;BME280;4004;42.624;23.386;2023-08-06T11:05:05;93080.75;;;26.57;46.78
7918;BME280;4004;42.624;23.386;2023-08-06T11:07:31;93079.75;;;26.40;47.42
7918;BME280;4004;42.624;23.386;2023-08-06T11:10:01;93079.00;;;26.39;48.06
7918;BME280;4004;42.624;23.386;2023-08-06T11:12:30;93078.03;;;26.42;47.66
7918;BME280;4004;42.624;23.386;2023-08-06T11:14:57;93080.31;;;26.44;48.29
7918;BME280;4004;42.624;23.386;2023-08-06T11:17:24;93084.09;;;26.46;48.50
7918;BME280;4004;42.624;23.386;2023-08-06T11:19:51;93076.66;;;26.73;48.51
7918;BME280;4004;42.624;23.386;2023-08-06T11:22:19;93091.25;;;27.05;48.40
7918;BME280;4004;42.624;23.386;2023-08-06T11:24:46;93095.59;;;27.38;47.87
7918;BME280;4004;42.624;23.386;2023-08-06T11:27:14;93099.00;;;27.54;46.45
7918;BME280;4004;42.624;23.386;2023-08-06T11:29:42;93100.94;;;27.47;47.54
7918;BME280;4004;42.624;23.386;2023-08-06T11:32:10;93102.97;;;27.47;48.37
7918;BME280;4004;42.624;23.386;2023-08-06T11:34:37;93093.97;;;27.00;47.41
7918;BME280;4004;42.624;23.386;2023-08-06T11:37:04;93079.47;;;27.05;45.86
7918;BME280;4004;42.624;23.386;2023-08-06T11:39:32;93091.06;;;27.09;45.07
7918;BME280;4004;42.624;23.386;2023-08-06T11:41:59;93072.75;;;26.85;44.33
7918;BME280;4004;42.624;23.386;2023-08-06T11:44:30;93089.75;;;26.78;44.52
7918;BME280;4004;42.624;23.386;2023-08-06T11:46:59;93090.09;;;26.86;44.88
7918;BME280;4004;42.624;23.386;2023-08-06T11:49:40;93085.28;;;26.60;45.63
7918;BME280;4004;42.624;23.386;2023-08-06T11:52:12;93089.06;;;26.63;46.16
7918;BME280;4004;42.624;23.386;2023-08-06T11:54:40;93092.94;;;26.71;46.20
7918;BME280;4004;42.624;23.386;2023-08-06T11:57:07;93103.06;;;26.59;45.64
7918;BME280;4004;42.624;23.386;2023-08-06T11:59:34;93092.81;;;26.60;46.44
7918;BME280;4004;42.624;23.386;2023-08-06T12:02:03;93081.34;;;26.67;47.86
7918;BME280;4004;42.624;23.386;2023-08-06T12:04:31;93088.38;;;26.68;47.74
7918;BME280;4004;42.624;23.386;2023-08-06T12:07:05;93087.19;;;26.54;48.30
7918;BME280;4004;42.624;23.386;2023-08-06T12:09:33;93090.06;;;26.60;48.20
7918;BME280;4004;42.624;23.386;2023-08-06T12:12:01;93091.81;;;26.63;48.30
7918;BME280;4004;42.624;23.386;2023-08-06T12:14:28;93085.56;;;26.62;48.04
7918;BME280;4004;42.624;23.386;2023-08-06T12:16:55;93084.94;;;26.73;47.86
7918;BME280;4004;42.624;23.386;2023-08-06T12:19:23;93074.59;;;26.94;46.64
7918;BME280;4004;42.624;23.386;2023-08-06T12:21:50;93071.44;;;27.01;45.89
7918;BME280;4004;42.624;23.386;2023-08-06T12:24:17;93073.91;;;26.99;46.29
7918;BME280;4004;42.624;23.386;2023-08-06T12:26:43;93073.31;;;26.90;46.97
7918;BME280;4004;42.624;23.386;2023-08-06T12:29:10;93061.31;;;26.66;47.07
7918;BME280;4004;42.624;23.386;2023-08-06T12:31:37;93074.97;;;26.55;47.87
7918;BME280;4004;42.624;23.386;2023-08-06T12:34:04;93073.13;;;26.52;48.37
7918;BME280;4004;42.624;23.386;2023-08-06T12:36:32;93080.66;;;26.52;48.70
7918;BME280;4004;42.624;23.386;2023-08-06T12:38:58;93081.31;;;26.61;49.09
7918;BME280;4004;42.624;23.386;2023-08-06T12:41:25;93083.28;;;26.81;49.17
7918;BME280;4004;42.624;23.386;2023-08-06T12:43:52;93084.44;;;27.01;48.82
7918;BME280;4004;42.624;23.386;2023-08-06T12:46:19;93074.13;;;26.96;48.58
7918;BME280;4004;42.624;23.386;2023-08-06T12:48:45;93078.50;;;26.82;48.60
7918;BME280;4004;42.624;23.386;2023-08-06T12:51:14;93079.06;;;26.86;48.39
7918;BME280;4004;42.624;23.386;2023-08-06T12:53:42;93076.56;;;26.88;48.59
7918;BME280;4004;42.624;23.386;2023-08-06T12:56:08;93073.25;;;27.10;48.70
7918;BME280;4004;42.624;23.386;2023-08-06T12:58:35;93078.34;;;27.17;49.01
7918;BME280;4004;42.624;23.386;2023-08-06T13:01:02;93076.34;;;27.18;49.17
7918;BME280;4004;42.624;23.386;2023-08-06T13:03:29;93075.09;;;27.19;49.31
7918;BME280;4004;42.624;23.386;2023-08-06T13:05:55;93078.34;;;27.17;48.93
7918;BME280;4004;42.624;23.386;2023-08-06T13:08:23;93076.94;;;27.27;48.94